sensor_id;sensor_type;location;lat;lon;timestamp;P1;durP1;ratioP1;P2;durP2;ratioP2
58083;SDS011;43882;51.550;11.858;2023-05-18T00:01:36;16.92;;;4.85;;
58083;SDS011;43882;51.550;11.858;2023-05-18T00:05:01;15.00;;;4.20;;
58083;SDS011;43882;51.550;11.858;2023-05-18T00:08:31;14.38;;;4.30;;
58083;SDS011;43882;51.550;11.858;2023-05-18T00:11:56;19.52;;;5.15;;
58083;SDS011;43882;51.550;11.858;2023-05-18T00:15:21;17.80;;;4.70;;
58083;SDS011;43882;51.550;11.858;2023-05-18T00:18:46;19.05;;;4.90;;
58083;SDS011;43882;51.550;11.858;2023-05-18T00:22:11;15.38;;;4.22;;
58083;SDS011;43882;51.550;11.858;2023-05-18T00:25:40;15.93;;;4.53;;
58083;SDS011;43882;51.550;11.858;2023-05-18T00:29:06;17.35;;;4.60;;
58083;SDS011;43882;51.550;11.858;2023-05-18T00:32:31;17.52;;;4.72;;
58083;SDS011;43882;51.550;11.858;2023-05-18T00:35:56;16.85;;;4.63;;
58083;SDS011;43882;51.550;11.858;2023-05-18T00:39:21;18.75;;;4.50;;
58083;SDS011;43882;51.550;11.858;2023-05-18T00:42:45;19.95;;;5.28;;
58083;SDS011;43882;51.550;11.858;2023-05-18T00:46:10;19.25;;;4.43;;
58083;SDS011;43882;51.550;11.858;2023-05-18T00:49:35;16.70;;;5.15;;
58083;SDS011;43882;51.550;11.858;2023-05-18T00:53:00;16.48;;;4.60;;
58083;SDS011;43882;51.550;11.858;2023-05-18T00:56:25;15.85;;;4.78;;
58083;SDS011;43882;51.550;11.858;2023-05-18T00:59:50;16.60;;;4.88;;
58083;SDS011;43882;51.550;11.858;2023-05-18T01:03:15;18.05;;;5.18;;
58083;SDS011;43882;51.550;11.858;2023-05-18T01:06:40;19.52;;;5.47;;
58083;SDS011;43882;51.550;11.858;2023-05-18T01:10:09;15.05;;;4.50;;
58083;SDS011;43882;51.550;11.858;2023-05-18T01:13:40;18.90;;;4.80;;
58083;SDS011;43882;51.550;11.858;2023-05-18T01:17:29;21.90;;;5.95;;
58083;SDS011;43882;51.550;11.858;2023-05-18T01:24:49;16.60;;;4.20;;
58083;SDS011;43882;51.550;11.858;2023-05-18T01:28:17;17.13;;;4.80;;
58083;SDS011;43882;51.550;11.858;2023-05-18T01:31:42;17.33;;;5.38;;
58083;SDS011;43882;51.550;11.858;2023-05-18T01:35:07;16.23;;;4.28;;
58083;SDS011;43882;51.550;11.858;2023-05-18T01:38:32;16.65;;;4.45;;
58083;SDS011;43882;51.550;11.858;2023-05-18T01:42:01;20.05;;;4.93;;
58083;SDS011;43882;51.550;11.858;2023-05-18T01:45:32;16.75;;;4.50;;
58083;SDS011;43882;51.550;11.858;2023-05-18T01:49:01;16.70;;;5.25;;
58083;SDS011;43882;51.550;11.858;2023-05-18T01:52:47;19.58;;;4.95;;
58083;SDS011;43882;51.550;11.858;2023-05-18T01:56:17;16.75;;;4.97;;
58083;SDS011;43882;51.550;11.858;2023-05-18T01:59:42;17.52;;;4.90;;
58083;SDS011;43882;51.550;11.858;2023-05-18T02:03:08;18.92;;;4.85;;
58083;SDS011;43882;51.550;11.858;2023-05-18T02:06:33;19.42;;;4.90;;
58083;SDS011;43882;51.550;11.858;2023-05-18T02:09:57;18.35;;;4.78;;
58083;SDS011;43882;51.550;11.858;2023-05-18T02:13:22;15.63;;;5.63;;
58083;SDS011;43882;51.550;11.858;2023-05-18T02:16:47;18.73;;;5.70;;
58083;SDS011;43882;51.550;11.858;2023-05-18T02:20:11;18.95;;;4.75;;
58083;SDS011;43882;51.550;11.858;2023-05-18T02:23:37;19.55;;;4.68;;
58083;SDS011;43882;51.550;11.858;2023-05-18T02:27:02;17.25;;;4.40;;
58083;SDS011;43882;51.550;11.858;2023-05-18T02:30:26;19.02;;;4.63;;
58083;SDS011;43882;51.550;11.858;2023-05-18T02:33:53;17.70;;;4.60;;
58083;SDS011;43882;51.550;11.858;2023-05-18T02:37:17;16.77;;;4.35;;
58083;SDS011;43882;51.550;11.858;2023-05-18T02:40:42;16.38;;;5.38;;
58083;SDS011;43882;51.550;11.858;2023-05-18T02:44:07;18.15;;;4.88;;
58083;SDS011;43882;51.550;11.858;2023-05-18T02:47:32;16.17;;;4.63;;
58083;SDS011;43882;51.550;11.858;2023-05-18T02:50:57;19.17;;;4.90;;
58083;SDS011;43882;51.550;11.858;2023-05-18T02:54:22;17.48;;;5.10;;
58083;SDS011;43882;51.550;11.858;2023-05-18T02:57:46;17.10;;;4.72;;
58083;SDS011;43882;51.550;11.858;2023-05-18T03:01:11;18.52;;;4.57;;
58083;SDS011;43882;51.550;11.858;2023-05-18T03:04:38;19.45;;;4.88;;
58083;SDS011;43882;51.550;11.858;2023-05-18T03:08:02;16.98;;;5.20;;
58083;SDS011;43882;51.550;11.858;2023-05-18T03:11:27;16.55;;;4.57;;
58083;SDS011;43882;51.550;11.858;2023-05-18T03:14:52;15.63;;;4.88;;
58083;SDS011;43882;51.550;11.858;2023-05-18T03:18:17;24.60;;;5.20;;
58083;SDS011;43882;51.550;11.858;2023-05-18T03:21:41;17.50;;;4.80;;
58083;SDS011;43882;51.550;11.858;2023-05-18T03:25:06;19.50;;;4.93;;
58083;SDS011;43882;51.550;11.858;2023-05-18T03:28:36;18.00;;;5.18;;
58083;SDS011;43882;51.550;11.858;2023-05-18T03:32:00;17.10;;;5.20;;
58083;SDS011;43882;51.550;11.858;2023-05-18T03:35:25;16.77;;;4.53;;
58083;SDS011;43882;51.550;11.858;2023-05-18T03:38:52;19.13;;;5.05;;
58083;SDS011;43882;51.550;11.858;2023-05-18T03:42:16;16.05;;;5.05;;
58083;SDS011;43882;51.550;11.858;2023-05-18T03:45:41;20.00;;;5.53;;
58083;SDS011;43882;51.550;11.858;2023-05-18T03:49:05;18.42;;;4.93;;
58083;SDS011;43882;51.550;11.858;2023-05-18T03:52:34;18.63;;;5.22;;
58083;SDS011;43882;51.550;11.858;2023-05-18T03:56:00;18.67;;;5.38;;
58083;SDS011;43882;51.550;11.858;2023-05-18T03:59:24;18.25;;;5.32;;
58083;SDS011;43882;51.550;11.858;2023-05-18T04:02:49;20.65;;;5.10;;
58083;SDS011;43882;51.550;11.858;2023-05-18T04:06:14;16.98;;;5.22;;
58083;SDS011;43882;51.550;11.858;2023-05-18T04:09:45;19.10;;;4.72;;
58083;SDS011;43882;51.550;11.858;2023-05-18T04:13:10;19.17;;;5.57;;
58083;SDS011;43882;51.550;11.858;2023-05-18T04:16:35;17.48;;;4.68;;
58083;SDS011;43882;51.550;11.858;2023-05-18T04:20:00;19.13;;;5.28;;
58083;SDS011;43882;51.550;11.858;2023-05-18T04:23:25;16.42;;;5.68;;
58083;SDS011;43882;51.550;11.858;2023-05-18T04:26:53;19.02;;;5.18;;
58083;SDS011;43882;51.550;11.858;2023-05-18T04:30:18;16.13;;;5.10;;
58083;SDS011;43882;51.550;11.858;2023-05-18T04:33:43;18.63;;;5.05;;
58083;SDS011;43882;51.550;11.858;2023-05-18T04:37:07;19.10;;;5.10;;
58083;SDS011;43882;51.550;11.858;2023-05-18T04:40:32;20.30;;;5.30;;
58083;SDS011;43882;51.550;11.858;2023-05-18T04:43:58;18.17;;;5.40;;
58083;SDS011;43882;51.550;11.858;2023-05-18T04:47:22;19.10;;;5.75;;
58083;SDS011;43882;51.550;11.858;2023-05-18T04:50:49;19.95;;;5.72;;
58083;SDS011;43882;51.550;11.858;2023-05-18T04:54:14;18.58;;;5.40;;
58083;SDS011;43882;51.550;11.858;2023-05-18T04:57:40;18.05;;;5.40;;
58083;SDS011;43882;51.550;11.858;2023-05-18T05:01:05;18.48;;;5.30;;
58083;SDS011;43882;51.550;11.858;2023-05-18T05:04:30;19.25;;;5.32;;
58083;SDS011;43882;51.550;11.858;2023-05-18T05:07:54;18.77;;;5.13;;
58083;SDS011;43882;51.550;11.858;2023-05-18T05:11:19;19.00;;;5.07;;
58083;SDS011;43882;51.550;11.858;2023-05-18T05:14:44;17.52;;;5.25;;
58083;SDS011;43882;51.550;11.858;2023-05-18T05:18:08;28.23;;;6.20;;
58083;SDS011;43882;51.550;11.858;2023-05-18T05:21:33;17.23;;;5.25;;
58083;SDS011;43882;51.550;11.858;2023-05-18T05:24:57;18.48;;;4.28;;
58083;SDS011;43882;51.550;11.858;2023-05-18T05:28:22;17.23;;;5.15;;
58083;SDS011;43882;51.550;11.858;2023-05-18T05:31:47;20.05;;;5.20;;
58083;SDS011;43882;51.550;11.858;2023-05-18T05:35:11;15.05;;;4.38;;
58083;SDS011;43882;51.550;11.858;2023-05-18T05:38:36;16.13;;;4.68;;
58083;SDS011;43882;51.550;11.858;2023-05-18T05:42:01;14.85;;;4.30;;
58083;SDS011;43882;51.550;11.858;2023-05-18T05:45:25;20.45;;;4.63;;
58083;SDS011;43882;51.550;11.858;2023-05-18T05:48:50;15.20;;;3.90;;
58083;SDS011;43882;51.550;11.858;2023-05-18T05:52:14;18.40;;;4.50;;
58083;SDS011;43882;51.550;11.858;2023-05-18T05:55:43;14.93;;;3.80;;
58083;SDS011;43882;51.550;11.858;2023-05-18T05:59:08;13.68;;;4.05;;
58083;SDS011;43882;51.550;11.858;2023-05-18T06:02:36;15.75;;;4.13;;
58083;SDS011;43882;51.550;11.858;2023-05-18T06:06:01;17.17;;;3.97;;
58083;SDS011;43882;51.550;11.858;2023-05-18T06:09:25;18.52;;;4.50;;
58083;SDS011;43882;51.550;11.858;2023-05-18T06:12:50;13.55;;;3.63;;
58083;SDS011;43882;51.550;11.858;2023-05-18T06:16:16;13.95;;;4.03;;
58083;SDS011;43882;51.550;11.858;2023-05-18T06:19:40;15.50;;;4.15;;
58083;SDS011;43882;51.550;11.858;2023-05-18T06:23:05;16.13;;;3.60;;
58083;SDS011;43882;51.550;11.858;2023-05-18T06:26:30;17.58;;;4.03;;
58083;SDS011;43882;51.550;11.858;2023-05-18T06:29:55;14.07;;;3.55;;
58083;SDS011;43882;51.550;11.858;2023-05-18T06:33:20;16.98;;;4.00;;
58083;SDS011;43882;51.550;11.858;2023-05-18T06:36:45;13.43;;;3.42;;
58083;SDS011;43882;51.550;11.858;2023-05-18T06:40:09;14.10;;;3.38;;
58083;SDS011;43882;51.550;11.858;2023-05-18T06:43:34;15.23;;;3.72;;
58083;SDS011;43882;51.550;11.858;2023-05-18T06:46:59;14.02;;;3.83;;
58083;SDS011;43882;51.550;11.858;2023-05-18T06:50:24;13.30;;;3.33;;
58083;SDS011;43882;51.550;11.858;2023-05-18T06:53:49;15.52;;;3.58;;
58083;SDS011;43882;51.550;11.858;2023-05-18T06:57:13;14.35;;;3.30;;
58083;SDS011;43882;51.550;11.858;2023-05-18T07:00:38;14.65;;;3.20;;
58083;SDS011;43882;51.550;11.858;2023-05-18T07:04:02;10.82;;;2.80;;
58083;SDS011;43882;51.550;11.858;2023-05-18T07:07:29;14.52;;;3.10;;
58083;SDS011;43882;51.550;11.858;2023-05-18T07:10:54;10.60;;;2.97;;
58083;SDS011;43882;51.550;11.858;2023-05-18T07:14:18;12.48;;;2.90;;
58083;SDS011;43882;51.550;11.858;2023-05-18T07:17:43;13.65;;;3.15;;
58083;SDS011;43882;51.550;11.858;2023-05-18T07:21:08;15.00;;;2.97;;
58083;SDS011;43882;51.550;11.858;2023-05-18T07:24:32;12.20;;;2.80;;
58083;SDS011;43882;51.550;11.858;2023-05-18T07:27:57;16.00;;;3.05;;
58083;SDS011;43882;51.550;11.858;2023-05-18T07:31:22;12.93;;;2.78;;
58083;SDS011;43882;51.550;11.858;2023-05-18T07:34:47;14.90;;;3.25;;
58083;SDS011;43882;51.550;11.858;2023-05-18T07:38:11;11.27;;;2.75;;
58083;SDS011;43882;51.550;11.858;2023-05-18T07:41:42;13.15;;;3.00;;
58083;SDS011;43882;51.550;11.858;2023-05-18T07:45:07;13.18;;;2.67;;
58083;SDS011;43882;51.550;11.858;2023-05-18T07:48:31;9.57;;;2.47;;
58083;SDS011;43882;51.550;11.858;2023-05-18T07:51:56;12.18;;;2.80;;
58083;SDS011;43882;51.550;11.858;2023-05-18T07:55:21;12.32;;;2.72;;
58083;SDS011;43882;51.550;11.858;2023-05-18T07:58:46;13.00;;;2.88;;
58083;SDS011;43882;51.550;11.858;2023-05-18T08:02:11;12.88;;;3.35;;
58083;SDS011;43882;51.550;11.858;2023-05-18T08:05:35;14.00;;;2.83;;
58083;SDS011;43882;51.550;11.858;2023-05-18T08:09:00;14.27;;;2.75;;
58083;SDS011;43882;51.550;11.858;2023-05-18T08:12:25;9.95;;;2.95;;
58083;SDS011;43882;51.550;11.858;2023-05-18T08:15:49;13.43;;;2.85;;
58083;SDS011;43882;51.550;11.858;2023-05-18T08:19:14;16.40;;;3.45;;
58083;SDS011;43882;51.550;11.858;2023-05-18T08:22:38;13.60;;;3.10;;
58083;SDS011;43882;51.550;11.858;2023-05-18T08:26:03;12.27;;;2.80;;
58083;SDS011;43882;51.550;11.858;2023-05-18T08:29:28;14.07;;;2.88;;
58083;SDS011;43882;51.550;11.858;2023-05-18T08:32:53;21.98;;;6.05;;
58083;SDS011;43882;51.550;11.858;2023-05-18T08:36:17;15.63;;;3.03;;
58083;SDS011;43882;51.550;11.858;2023-05-18T08:39:42;13.45;;;2.63;;
58083;SDS011;43882;51.550;11.858;2023-05-18T08:43:11;12.18;;;2.22;;
58083;SDS011;43882;51.550;11.858;2023-05-18T08:46:45;12.65;;;2.70;;
58083;SDS011;43882;51.550;11.858;2023-05-18T08:50:12;11.85;;;2.63;;
58083;SDS011;43882;51.550;11.858;2023-05-18T08:53:41;12.35;;;2.70;;
58083;SDS011;43882;51.550;11.858;2023-05-18T08:57:07;10.50;;;2.58;;
58083;SDS011;43882;51.550;11.858;2023-05-18T09:00:32;12.35;;;2.80;;
58083;SDS011;43882;51.550;11.858;2023-05-18T09:03:57;12.10;;;2.70;;
58083;SDS011;43882;51.550;11.858;2023-05-18T09:07:21;10.25;;;2.72;;
58083;SDS011;43882;51.550;11.858;2023-05-18T09:10:46;14.68;;;3.40;;
58083;SDS011;43882;51.550;11.858;2023-05-18T09:14:11;13.75;;;2.92;;
58083;SDS011;43882;51.550;11.858;2023-05-18T09:17:36;15.38;;;3.58;;
58083;SDS011;43882;51.550;11.858;2023-05-18T09:21:01;14.75;;;3.58;;
58083;SDS011;43882;51.550;11.858;2023-05-18T09:24:25;15.40;;;4.45;;
58083;SDS011;43882;51.550;11.858;2023-05-18T09:27:51;21.73;;;4.30;;
58083;SDS011;43882;51.550;11.858;2023-05-18T09:31:16;15.73;;;3.47;;
58083;SDS011;43882;51.550;11.858;2023-05-18T09:34:41;11.65;;;3.53;;
58083;SDS011;43882;51.550;11.858;2023-05-18T09:38:06;13.70;;;3.30;;
58083;SDS011;43882;51.550;11.858;2023-05-18T09:41:34;26.20;;;4.85;;
58083;SDS011;43882;51.550;11.858;2023-05-18T09:45:02;13.02;;;2.70;;
58083;SDS011;43882;51.550;11.858;2023-05-18T09:48:30;13.30;;;2.70;;
58083;SDS011;43882;51.550;11.858;2023-05-18T09:51:55;11.32;;;2.78;;
58083;SDS011;43882;51.550;11.858;2023-05-18T09:55:21;12.88;;;2.85;;
58083;SDS011;43882;51.550;11.858;2023-05-18T09:58:46;10.00;;;2.65;;
58083;SDS011;43882;51.550;11.858;2023-05-18T10:02:14;11.30;;;2.72;;
58083;SDS011;43882;51.550;11.858;2023-05-18T10:05:41;9.70;;;2.33;;
58083;SDS011;43882;51.550;11.858;2023-05-18T10:09:13;14.73;;;2.92;;
58083;SDS011;43882;51.550;11.858;2023-05-18T10:12:40;15.55;;;3.47;;
58083;SDS011;43882;51.550;11.858;2023-05-18T10:16:07;12.82;;;2.58;;
58083;SDS011;43882;51.550;11.858;2023-05-18T10:19:33;10.80;;;2.65;;
58083;SDS011;43882;51.550;11.858;2023-05-18T10:22:59;9.95;;;2.25;;
58083;SDS011;43882;51.550;11.858;2023-05-18T10:26:28;56.35;;;6.78;;
58083;SDS011;43882;51.550;11.858;2023-05-18T10:29:56;13.73;;;3.00;;
58083;SDS011;43882;51.550;11.858;2023-05-18T10:33:26;10.18;;;2.50;;
58083;SDS011;43882;51.550;11.858;2023-05-18T10:36:51;22.35;;;3.08;;
58083;SDS011;43882;51.550;11.858;2023-05-18T10:40:17;12.98;;;2.38;;
58083;SDS011;43882;51.550;11.858;2023-05-18T10:43:42;8.32;;;2.45;;
58083;SDS011;43882;51.550;11.858;2023-05-18T10:47:08;11.75;;;2.65;;
58083;SDS011;43882;51.550;11.858;2023-05-18T10:50:34;14.10;;;2.63;;
58083;SDS011;43882;51.550;11.858;2023-05-18T10:54:08;15.52;;;2.60;;
58083;SDS011;43882;51.550;11.858;2023-05-18T10:57:35;14.15;;;2.65;;
58083;SDS011;43882;51.550;11.858;2023-05-18T11:01:01;11.77;;;2.35;;
58083;SDS011;43882;51.550;11.858;2023-05-18T11:04:28;9.13;;;2.20;;
58083;SDS011;43882;51.550;11.858;2023-05-18T11:08:00;12.32;;;2.88;;
58083;SDS011;43882;51.550;11.858;2023-05-18T11:11:26;9.90;;;2.22;;
58083;SDS011;43882;51.550;11.858;2023-05-18T11:14:51;10.40;;;2.47;;
58083;SDS011;43882;51.550;11.858;2023-05-18T11:18:19;13.02;;;2.80;;
58083;SDS011;43882;51.550;11.858;2023-05-18T11:28:50;12.02;;;2.70;;
58083;SDS011;43882;51.550;11.858;2023-05-18T11:32:22;14.52;;;2.88;;
58083;SDS011;43882;51.550;11.858;2023-05-18T11:39:25;14.32;;;2.50;;
58083;SDS011;43882;51.550;11.858;2023-05-18T11:43:20;13.13;;;2.72;;
58083;SDS011;43882;51.550;11.858;2023-05-18T11:50:19;11.40;;;2.83;;
58083;SDS011;43882;51.550;11.858;2023-05-18T11:53:44;11.45;;;2.47;;
58083;SDS011;43882;51.550;11.858;2023-05-18T11:57:13;8.77;;;2.20;;
58083;SDS011;43882;51.550;11.858;2023-05-18T12:00:43;15.38;;;2.53;;
58083;SDS011;43882;51.550;11.858;2023-05-18T12:04:08;8.43;;;2.20;;
58083;SDS011;43882;51.550;11.858;2023-05-18T12:07:34;10.85;;;2.50;;
58083;SDS011;43882;51.550;11.858;2023-05-18T12:10:59;11.13;;;2.58;;
58083;SDS011;43882;51.550;11.858;2023-05-18T12:14:24;15.57;;;3.00;;
58083;SDS011;43882;51.550;11.858;2023-05-18T12:17:50;10.73;;;2.47;;
58083;SDS011;43882;51.550;11.858;2023-05-18T12:21:19;8.73;;;2.42;;
58083;SDS011;43882;51.550;11.858;2023-05-18T12:24:45;13.40;;;2.83;;
58083;SDS011;43882;51.550;11.858;2023-05-18T12:28:09;14.02;;;2.72;;
58083;SDS011;43882;51.550;11.858;2023-05-18T12:31:38;12.52;;;2.90;;
58083;SDS011;43882;51.550;11.858;2023-05-18T12:35:03;8.60;;;2.40;;
58083;SDS011;43882;51.550;11.858;2023-05-18T12:38:28;15.68;;;2.42;;
58083;SDS011;43882;51.550;11.858;2023-05-18T12:41:52;12.48;;;2.67;;
58083;SDS011;43882;51.550;11.858;2023-05-18T12:45:27;12.35;;;2.30;;
58083;SDS011;43882;51.550;11.858;2023-05-18T12:48:56;11.27;;;2.35;;
58083;SDS011;43882;51.550;11.858;2023-05-18T12:52:21;11.70;;;2.80;;
58083;SDS011;43882;51.550;11.858;2023-05-18T12:55:54;15.90;;;2.92;;
58083;SDS011;43882;51.550;11.858;2023-05-18T12:59:26;11.27;;;2.70;;
58083;SDS011;43882;51.550;11.858;2023-05-18T13:02:51;11.90;;;2.70;;
58083;SDS011;43882;51.550;11.858;2023-05-18T13:06:19;11.18;;;2.80;;
58083;SDS011;43882;51.550;11.858;2023-05-18T13:09:44;11.65;;;2.47;;
58083;SDS011;43882;51.550;11.858;2023-05-18T13:13:14;10.38;;;2.40;;
58083;SDS011;43882;51.550;11.858;2023-05-18T13:16:43;9.27;;;2.38;;
58083;SDS011;43882;51.550;11.858;2023-05-18T13:20:43;11.57;;;2.65;;
58083;SDS011;43882;51.550;11.858;2023-05-18T13:24:09;9.98;;;2.60;;
58083;SDS011;43882;51.550;11.858;2023-05-18T13:27:34;11.02;;;2.40;;
58083;SDS011;43882;51.550;11.858;2023-05-18T13:30:59;10.48;;;2.22;;
58083;SDS011;43882;51.550;11.858;2023-05-18T13:34:24;10.65;;;2.58;;
58083;SDS011;43882;51.550;11.858;2023-05-18T13:37:49;12.73;;;2.42;;
58083;SDS011;43882;51.550;11.858;2023-05-18T13:41:13;9.82;;;2.45;;
58083;SDS011;43882;51.550;11.858;2023-05-18T13:44:38;9.63;;;2.30;;
58083;SDS011;43882;51.550;11.858;2023-05-18T13:48:03;11.82;;;2.70;;
58083;SDS011;43882;51.550;11.858;2023-05-18T13:51:27;12.85;;;2.70;;
58083;SDS011;43882;51.550;11.858;2023-05-18T13:54:52;8.80;;;2.45;;
58083;SDS011;43882;51.550;11.858;2023-05-18T13:58:16;11.73;;;2.70;;
58083;SDS011;43882;51.550;11.858;2023-05-18T14:01:43;9.70;;;2.45;;
58083;SDS011;43882;51.550;11.858;2023-05-18T14:05:08;15.45;;;2.60;;
58083;SDS011;43882;51.550;11.858;2023-05-18T14:08:33;13.43;;;2.78;;
58083;SDS011;43882;51.550;11.858;2023-05-18T14:11:58;12.70;;;2.70;;
58083;SDS011;43882;51.550;11.858;2023-05-18T14:15:22;10.27;;;2.60;;
58083;SDS011;43882;51.550;11.858;2023-05-18T14:18:47;22.55;;;4.38;;
58083;SDS011;43882;51.550;11.858;2023-05-18T14:22:11;10.50;;;2.20;;
58083;SDS011;43882;51.550;11.858;2023-05-18T14:25:36;12.48;;;2.70;;
58083;SDS011;43882;51.550;11.858;2023-05-18T14:29:01;15.45;;;2.78;;
58083;SDS011;43882;51.550;11.858;2023-05-18T14:32:26;10.75;;;2.47;;
58083;SDS011;43882;51.550;11.858;2023-05-18T14:35:50;10.65;;;2.47;;
58083;SDS011;43882;51.550;11.858;2023-05-18T14:39:15;8.55;;;2.53;;
58083;SDS011;43882;51.550;11.858;2023-05-18T14:42:39;11.00;;;2.47;;
58083;SDS011;43882;51.550;11.858;2023-05-18T14:46:04;19.13;;;3.90;;
58083;SDS011;43882;51.550;11.858;2023-05-18T14:49:29;10.75;;;2.40;;
58083;SDS011;43882;51.550;11.858;2023-05-18T14:52:54;10.48;;;2.20;;
58083;SDS011;43882;51.550;11.858;2023-05-18T14:56:19;8.90;;;2.38;;
58083;SDS011;43882;51.550;11.858;2023-05-18T14:59:44;10.77;;;2.45;;
58083;SDS011;43882;51.550;11.858;2023-05-18T15:03:08;10.60;;;2.38;;
58083;SDS011;43882;51.550;11.858;2023-05-18T15:06:33;11.85;;;2.70;;
58083;SDS011;43882;51.550;11.858;2023-05-18T15:09:58;11.32;;;2.53;;
58083;SDS011;43882;51.550;11.858;2023-05-18T15:13:22;10.02;;;2.28;;
58083;SDS011;43882;51.550;11.858;2023-05-18T15:16:47;20.10;;;3.15;;
58083;SDS011;43882;51.550;11.858;2023-05-18T15:20:11;11.75;;;2.83;;
58083;SDS011;43882;51.550;11.858;2023-05-18T15:23:36;11.35;;;2.70;;
58083;SDS011;43882;51.550;11.858;2023-05-18T15:27:01;12.70;;;2.92;;
58083;SDS011;43882;51.550;11.858;2023-05-18T15:30:25;10.85;;;2.60;;
58083;SDS011;43882;51.550;11.858;2023-05-18T15:33:50;12.10;;;2.63;;
58083;SDS011;43882;51.550;11.858;2023-05-18T15:37:16;9.15;;;2.42;;
58083;SDS011;43882;51.550;11.858;2023-05-18T15:40:41;10.65;;;2.40;;
58083;SDS011;43882;51.550;11.858;2023-05-18T15:44:05;10.77;;;2.85;;
58083;SDS011;43882;51.550;11.858;2023-05-18T15:47:30;9.95;;;2.45;;
58083;SDS011;43882;51.550;11.858;2023-05-18T15:50:55;9.48;;;2.60;;
58083;SDS011;43882;51.550;11.858;2023-05-18T15:54:19;10.05;;;2.30;;
58083;SDS011;43882;51.550;11.858;2023-05-18T15:57:44;11.50;;;2.97;;
58083;SDS011;43882;51.550;11.858;2023-05-18T16:01:09;13.48;;;2.80;;
58083;SDS011;43882;51.550;11.858;2023-05-18T16:04:34;13.73;;;2.60;;
58083;SDS011;43882;51.550;11.858;2023-05-18T16:07:58;12.98;;;2.75;;
58083;SDS011;43882;51.550;11.858;2023-05-18T16:11:23;11.20;;;2.42;;
58083;SDS011;43882;51.550;11.858;2023-05-18T16:14:47;11.68;;;2.60;;
58083;SDS011;43882;51.550;11.858;2023-05-18T16:18:12;9.23;;;2.25;;
58083;SDS011;43882;51.550;11.858;2023-05-18T16:21:37;12.35;;;2.35;;
58083;SDS011;43882;51.550;11.858;2023-05-18T16:25:01;11.95;;;2.88;;
58083;SDS011;43882;51.550;11.858;2023-05-18T16:28:29;11.05;;;2.40;;
58083;SDS011;43882;51.550;11.858;2023-05-18T16:31:53;11.77;;;2.70;;
58083;SDS011;43882;51.550;11.858;2023-05-18T16:35:18;14.80;;;2.50;;
58083;SDS011;43882;51.550;11.858;2023-05-18T16:38:43;14.00;;;2.58;;
58083;SDS011;43882;51.550;11.858;2023-05-18T16:42:07;9.25;;;2.42;;
58083;SDS011;43882;51.550;11.858;2023-05-18T16:45:32;13.00;;;2.63;;
58083;SDS011;43882;51.550;11.858;2023-05-18T16:48:56;11.75;;;2.60;;
58083;SDS011;43882;51.550;11.858;2023-05-18T16:52:21;10.65;;;2.20;;
58083;SDS011;43882;51.550;11.858;2023-05-18T16:55:46;10.15;;;2.50;;
58083;SDS011;43882;51.550;11.858;2023-05-18T16:59:10;10.13;;;2.78;;
58083;SDS011;43882;51.550;11.858;2023-05-18T17:02:35;12.63;;;2.50;;
58083;SDS011;43882;51.550;11.858;2023-05-18T17:06:00;9.93;;;2.33;;
58083;SDS011;43882;51.550;11.858;2023-05-18T17:09:24;11.57;;;2.47;;
58083;SDS011;43882;51.550;11.858;2023-05-18T17:12:49;10.02;;;2.47;;
58083;SDS011;43882;51.550;11.858;2023-05-18T17:16:13;13.63;;;2.90;;
58083;SDS011;43882;51.550;11.858;2023-05-18T17:19:38;9.13;;;2.72;;
58083;SDS011;43882;51.550;11.858;2023-05-18T17:23:02;9.30;;;2.42;;
58083;SDS011;43882;51.550;11.858;2023-05-18T17:26:27;12.02;;;2.78;;
58083;SDS011;43882;51.550;11.858;2023-05-18T17:29:52;10.55;;;2.72;;
58083;SDS011;43882;51.550;11.858;2023-05-18T17:33:17;11.18;;;2.70;;
58083;SDS011;43882;51.550;11.858;2023-05-18T17:36:41;12.02;;;2.70;;
58083;SDS011;43882;51.550;11.858;2023-05-18T17:40:06;11.98;;;3.03;;
58083;SDS011;43882;51.550;11.858;2023-05-18T17:43:31;13.38;;;2.80;;
58083;SDS011;43882;51.550;11.858;2023-05-18T17:46:56;13.77;;;2.97;;
58083;SDS011;43882;51.550;11.858;2023-05-18T17:50:20;11.88;;;3.00;;
58083;SDS011;43882;51.550;11.858;2023-05-18T17:53:47;12.00;;;2.90;;
58083;SDS011;43882;51.550;11.858;2023-05-18T17:57:13;13.68;;;3.47;;
58083;SDS011;43882;51.550;11.858;2023-05-18T18:00:38;11.35;;;2.90;;
58083;SDS011;43882;51.550;11.858;2023-05-18T18:04:02;12.38;;;3.15;;
58083;SDS011;43882;51.550;11.858;2023-05-18T18:07:27;12.98;;;2.70;;
58083;SDS011;43882;51.550;11.858;2023-05-18T18:10:55;13.07;;;2.95;;
58083;SDS011;43882;51.550;11.858;2023-05-18T18:14:21;11.20;;;2.72;;
58083;SDS011;43882;51.550;11.858;2023-05-18T18:17:46;11.77;;;3.03;;
58083;SDS011;43882;51.550;11.858;2023-05-18T18:21:11;15.73;;;3.88;;
58083;SDS011;43882;51.550;11.858;2023-05-18T18:24:35;11.95;;;3.10;;
58083;SDS011;43882;51.550;11.858;2023-05-18T18:28:00;12.15;;;3.30;;
58083;SDS011;43882;51.550;11.858;2023-05-18T18:31:24;13.35;;;3.50;;
58083;SDS011;43882;51.550;11.858;2023-05-18T18:34:49;12.32;;;3.00;;
58083;SDS011;43882;51.550;11.858;2023-05-18T18:38:14;16.35;;;3.47;;
58083;SDS011;43882;51.550;11.858;2023-05-18T18:41:38;12.25;;;3.42;;
58083;SDS011;43882;51.550;11.858;2023-05-18T18:45:03;12.75;;;3.60;;
58083;SDS011;43882;51.550;11.858;2023-05-18T18:48:27;14.25;;;3.10;;
58083;SDS011;43882;51.550;11.858;2023-05-18T18:51:52;15.05;;;3.20;;
58083;SDS011;43882;51.550;11.858;2023-05-18T18:55:17;12.45;;;2.95;;
58083;SDS011;43882;51.550;11.858;2023-05-18T18:58:42;13.82;;;3.38;;
58083;SDS011;43882;51.550;11.858;2023-05-18T19:02:06;11.88;;;3.30;;
58083;SDS011;43882;51.550;11.858;2023-05-18T19:05:33;13.25;;;3.00;;
58083;SDS011;43882;51.550;11.858;2023-05-18T19:08:58;17.95;;;3.30;;
58083;SDS011;43882;51.550;11.858;2023-05-18T19:12:23;13.00;;;3.40;;
58083;SDS011;43882;51.550;11.858;2023-05-18T19:15:47;16.38;;;3.40;;
58083;SDS011;43882;51.550;11.858;2023-05-18T19:19:12;14.10;;;3.33;;
58083;SDS011;43882;51.550;11.858;2023-05-18T19:22:36;11.05;;;3.15;;
58083;SDS011;43882;51.550;11.858;2023-05-18T19:26:01;13.95;;;3.35;;
58083;SDS011;43882;51.550;11.858;2023-05-18T19:29:26;14.45;;;3.20;;
58083;SDS011;43882;51.550;11.858;2023-05-18T19:32:51;11.23;;;3.20;;
58083;SDS011;43882;51.550;11.858;2023-05-18T19:36:16;14.65;;;3.28;;
58083;SDS011;43882;51.550;11.858;2023-05-18T19:39:41;12.40;;;3.55;;
58083;SDS011;43882;51.550;11.858;2023-05-18T19:43:06;14.30;;;4.25;;
58083;SDS011;43882;51.550;11.858;2023-05-18T19:46:30;13.50;;;3.67;;
58083;SDS011;43882;51.550;11.858;2023-05-18T19:49:55;13.98;;;4.25;;
58083;SDS011;43882;51.550;11.858;2023-05-18T19:53:20;16.95;;;4.10;;
58083;SDS011;43882;51.550;11.858;2023-05-18T19:56:44;13.75;;;4.38;;
58083;SDS011;43882;51.550;11.858;2023-05-18T20:00:09;17.10;;;4.03;;
58083;SDS011;43882;51.550;11.858;2023-05-18T20:03:34;15.80;;;4.15;;
58083;SDS011;43882;51.550;11.858;2023-05-18T20:06:59;14.30;;;3.75;;
58083;SDS011;43882;51.550;11.858;2023-05-18T20:10:25;16.27;;;5.75;;
58083;SDS011;43882;51.550;11.858;2023-05-18T20:13:50;13.60;;;4.18;;
58083;SDS011;43882;51.550;11.858;2023-05-18T20:17:16;14.85;;;4.75;;
58083;SDS011;43882;51.550;11.858;2023-05-18T20:20:40;15.05;;;4.47;;
58083;SDS011;43882;51.550;11.858;2023-05-18T20:24:05;17.23;;;5.00;;